sensor_id;sensor_type;location;lat;lon;timestamp;pressure;altitude;pressure_sealevel;temperature
64458;BMP280;58438;51.200;7.252;2023-11-21T00:02:20;96895.00;;;7.10
64458;BMP280;58438;51.200;7.252;2023-11-21T00:05:09;96891.84;;;7.11
64458;BMP280;58438;51.200;7.252;2023-11-21T00:07:56;96893.28;;;7.07
64458;BMP280;58438;51.200;7.252;2023-11-21T00:10:43;96894.66;;;7.02
64458;BMP280;58438;51.200;7.252;2023-11-21T00:13:30;96904.56;;;7.05
64458;BMP280;58438;51.200;7.252;2023-11-21T00:16:17;96903.69;;;6.99
64458;BMP280;58438;51.200;7.252;2023-11-21T00:19:04;96916.50;;;6.99
64458;BMP280;58438;51.200;7.252;2023-11-21T00:21:53;96905.28;;;6.91
64458;BMP280;58438;51.200;7.252;2023-11-21T00:24:40;96906.03;;;6.92
64458;BMP280;58438;51.200;7.252;2023-11-21T00:27:27;96904.19;;;6.98
64458;BMP280;58438;51.200;7.252;2023-11-21T00:30:14;96900.91;;;6.94
64458;BMP280;58438;51.200;7.252;2023-11-21T00:33:01;96911.72;;;6.94
64458;BMP280;58438;51.200;7.252;2023-11-21T00:35:49;96903.63;;;6.94
64458;BMP280;58438;51.200;7.252;2023-11-21T00:38:38;96905.94;;;6.87
64458;BMP280;58438;51.200;7.252;2023-11-21T00:41:26;96903.97;;;6.87
64458;BMP280;58438;51.200;7.252;2023-11-21T00:44:14;96894.13;;;6.84
64458;BMP280;58438;51.200;7.252;2023-11-21T00:47:01;96890.38;;;6.82
64458;BMP280;58438;51.200;7.252;2023-11-21T00:49:49;96893.16;;;6.87
64458;BMP280;58438;51.200;7.252;2023-11-21T00:52:36;96895.84;;;6.87
64458;BMP280;58438;51.200;7.252;2023-11-21T00:55:25;96889.16;;;6.83
64458;BMP280;58438;51.200;7.252;2023-11-21T00:58:12;96881.81;;;6.83
64458;BMP280;58438;51.200;7.252;2023-11-21T01:00:59;96886.19;;;6.81
64458;BMP280;58438;51.200;7.252;2023-11-21T01:03:47;96883.75;;;6.83
64458;BMP280;58438;51.200;7.252;2023-11-21T01:06:36;96879.72;;;6.78
64458;BMP280;58438;51.200;7.252;2023-11-21T01:09:30;96882.53;;;6.84
64458;BMP280;58438;51.200;7.252;2023-11-21T01:12:21;96878.34;;;6.83
64458;BMP280;58438;51.200;7.252;2023-11-21T01:15:12;96875.06;;;6.79
64458;BMP280;58438;51.200;7.252;2023-11-21T01:18:04;96860.78;;;6.78
64458;BMP280;58438;51.200;7.252;2023-11-21T01:20:53;96867.25;;;6.81
64458;BMP280;58438;51.200;7.252;2023-11-21T01:23:44;96863.13;;;6.85
64458;BMP280;58438;51.200;7.252;2023-11-21T01:26:34;96871.50;;;6.87
64458;BMP280;58438;51.200;7.252;2023-11-21T01:29:26;96871.78;;;6.89
64458;BMP280;58438;51.200;7.252;2023-11-21T01:32:16;96867.13;;;6.89
64458;BMP280;58438;51.200;7.252;2023-11-21T01:35:06;96869.56;;;6.88
64458;BMP280;58438;51.200;7.252;2023-11-21T01:37:57;96865.16;;;6.90
64458;BMP280;58438;51.200;7.252;2023-11-21T01:40:47;96877.88;;;6.84
64458;BMP280;58438;51.200;7.252;2023-11-21T01:43:36;96883.09;;;6.88
64458;BMP280;58438;51.200;7.252;2023-11-21T01:46:28;96885.13;;;6.92
64458;BMP280;58438;51.200;7.252;2023-11-21T01:49:18;96885.50;;;6.85
64458;BMP280;58438;51.200;7.252;2023-11-21T01:52:07;96883.81;;;6.88
64458;BMP280;58438;51.200;7.252;2023-11-21T01:54:58;96887.56;;;6.90
64458;BMP280;58438;51.200;7.252;2023-11-21T01:57:51;96884.41;;;6.92
64458;BMP280;58438;51.200;7.252;2023-11-21T02:00:41;96887.28;;;6.88
64458;BMP280;58438;51.200;7.252;2023-11-21T02:03:32;96892.22;;;6.90
64458;BMP280;58438;51.200;7.252;2023-11-21T02:06:22;96893.16;;;6.87
64458;BMP280;58438;51.200;7.252;2023-11-21T02:09:13;96889.41;;;6.84
64458;BMP280;58438;51.200;7.252;2023-11-21T02:12:03;96895.41;;;6.88
64458;BMP280;58438;51.200;7.252;2023-11-21T02:14:55;96899.88;;;6.91
64458;BMP280;58438;51.200;7.252;2023-11-21T02:17:44;96905.09;;;6.95
64458;BMP280;58438;51.200;7.252;2023-11-21T02:20:35;96920.13;;;6.96
64458;BMP280;58438;51.200;7.252;2023-11-21T02:23:26;96925.81;;;6.98
64458;BMP280;58438;51.200;7.252;2023-11-21T02:26:14;96931.22;;;6.98
64458;BMP280;58438;51.200;7.252;2023-11-21T02:29:03;96930.66;;;6.94
64458;BMP280;58438;51.200;7.252;2023-11-21T02:31:51;96932.94;;;6.95
64458;BMP280;58438;51.200;7.252;2023-11-21T02:34:40;96922.28;;;6.92
64458;BMP280;58438;51.200;7.252;2023-11-21T02:37:29;96931.44;;;6.94
64458;BMP280;58438;51.200;7.252;2023-11-21T02:40:17;96933.66;;;6.96
64458;BMP280;58438;51.200;7.252;2023-11-21T02:43:06;96923.00;;;6.92
64458;BMP280;58438;51.200;7.252;2023-11-21T02:45:53;96931.22;;;6.98
64458;BMP280;58438;51.200;7.252;2023-11-21T02:48:40;96936.25;;;6.90
64458;BMP280;58438;51.200;7.252;2023-11-21T02:51:27;96924.69;;;6.90
64458;BMP280;58438;51.200;7.252;2023-11-21T02:54:14;96918.53;;;6.89
64458;BMP280;58438;51.200;7.252;2023-11-21T02:57:06;96916.69;;;6.95
64458;BMP280;58438;51.200;7.252;2023-11-21T02:59:54;96919.66;;;6.97
64458;BMP280;58438;51.200;7.252;2023-11-21T03:02:41;96923.84;;;6.98
64458;BMP280;58438;51.200;7.252;2023-11-21T03:05:29;96926.03;;;6.94
64458;BMP280;58438;51.200;7.252;2023-11-21T03:08:16;96925.81;;;6.98
64458;BMP280;58438;51.200;7.252;2023-11-21T03:11:03;96927.31;;;6.99
64458;BMP280;58438;51.200;7.252;2023-11-21T03:13:52;96922.63;;;6.99
64458;BMP280;58438;51.200;7.252;2023-11-21T03:16:40;96925.16;;;7.03
64458;BMP280;58438;51.200;7.252;2023-11-21T03:19:27;96930.84;;;7.05
64458;BMP280;58438;51.200;7.252;2023-11-21T03:22:14;96941.47;;;7.08
64458;BMP280;58438;51.200;7.252;2023-11-21T03:25:01;96939.44;;;7.03
64458;BMP280;58438;51.200;7.252;2023-11-21T03:27:48;96939.16;;;7.01
64458;BMP280;58438;51.200;7.252;2023-11-21T03:30:37;96941.22;;;7.06
64458;BMP280;58438;51.200;7.252;2023-11-21T03:33:24;96943.53;;;7.13
64458;BMP280;58438;51.200;7.252;2023-11-21T03:36:11;96949.59;;;7.08
64458;BMP280;58438;51.200;7.252;2023-11-21T03:38:58;96951.59;;;7.08
64458;BMP280;58438;51.200;7.252;2023-11-21T03:41:45;96952.28;;;7.08
64458;BMP280;58438;51.200;7.252;2023-11-21T03:44:32;96953.06;;;7.09
64458;BMP280;58438;51.200;7.252;2023-11-21T03:47:20;96959.22;;;7.09
64458;BMP280;58438;51.200;7.252;2023-11-21T03:50:07;96953.25;;;7.05
64458;BMP280;58438;51.200;7.252;2023-11-21T03:52:55;96965.38;;;7.10
64458;BMP280;58438;51.200;7.252;2023-11-21T03:55:42;96958.00;;;7.10
64458;BMP280;58438;51.200;7.252;2023-11-21T03:58:29;96972.47;;;7.07
64458;BMP280;58438;51.200;7.252;2023-11-21T04:01:19;96970.03;;;7.09
64458;BMP280;58438;51.200;7.252;2023-11-21T04:04:09;96976.19;;;7.10
64458;BMP280;58438;51.200;7.252;2023-11-21T04:06:56;96986.50;;;7.06
64458;BMP280;58438;51.200;7.252;2023-11-21T04:09:45;96991.13;;;7.05
64458;BMP280;58438;51.200;7.252;2023-11-21T04:12:31;96989.66;;;7.04
64458;BMP280;58438;51.200;7.252;2023-11-21T04:15:19;96990.09;;;7.03
64458;BMP280;58438;51.200;7.252;2023-11-21T04:18:06;97001.84;;;7.00
64458;BMP280;58438;51.200;7.252;2023-11-21T04:20:54;96995.06;;;7.04
64458;BMP280;58438;51.200;7.252;2023-11-21T04:23:41;97002.13;;;7.02
64458;BMP280;58438;51.200;7.252;2023-11-21T04:29:16;97004.75;;;6.96
64458;BMP280;58438;51.200;7.252;2023-11-21T04:32:03;96999.59;;;6.98
64458;BMP280;58438;51.200;7.252;2023-11-21T04:34:50;96996.44;;;7.00
64458;BMP280;58438;51.200;7.252;2023-11-21T04:37:39;97000.75;;;7.06
64458;BMP280;58438;51.200;7.252;2023-11-21T04:40:26;97005.72;;;7.08
64458;BMP280;58438;51.200;7.252;2023-11-21T04:43:13;97006.94;;;7.07
64458;BMP280;58438;51.200;7.252;2023-11-21T04:46:00;97007.66;;;7.07
64458;BMP280;58438;51.200;7.252;2023-11-21T04:48:49;97005.88;;;7.04
64458;BMP280;58438;51.200;7.252;2023-11-21T04:51:36;97005.13;;;7.04
64458;BMP280;58438;51.200;7.252;2023-11-21T04:54:24;97009.13;;;7.08
64458;BMP280;58438;51.200;7.252;2023-11-21T04:57:13;97007.19;;;7.09
64458;BMP280;58438;51.200;7.252;2023-11-21T05:00:00;97010.63;;;7.09
64458;BMP280;58438;51.200;7.252;2023-11-21T05:02:47;97020.25;;;7.10
64458;BMP280;58438;51.200;7.252;2023-11-21T05:05:35;97021.09;;;7.16
64458;BMP280;58438;51.200;7.252;2023-11-21T05:08:23;97025.66;;;7.10
64458;BMP280;58438;51.200;7.252;2023-11-21T05:11:12;97037.16;;;7.05
64458;BMP280;58438;51.200;7.252;2023-11-21T05:13:59;97042.09;;;7.07
64458;BMP280;58438;51.200;7.252;2023-11-21T05:16:47;97044.59;;;7.10
64458;BMP280;58438;51.200;7.252;2023-11-21T05:19:37;97054.13;;;7.06
64458;BMP280;58438;51.200;7.252;2023-11-21T05:22:25;97052.16;;;7.06
64458;BMP280;58438;51.200;7.252;2023-11-21T05:25:12;97056.09;;;7.05
64458;BMP280;58438;51.200;7.252;2023-11-21T05:28:01;97055.63;;;7.07
64458;BMP280;58438;51.200;7.252;2023-11-21T05:30:48;97060.00;;;7.04
64458;BMP280;58438;51.200;7.252;2023-11-21T05:33:45;97060.75;;;7.05
64458;BMP280;58438;51.200;7.252;2023-11-21T05:36:32;97071.09;;;7.06
64458;BMP280;58438;51.200;7.252;2023-11-21T05:39:19;97063.75;;;7.07
64458;BMP280;58438;51.200;7.252;2023-11-21T05:42:07;97072.59;;;7.07
64458;BMP280;58438;51.200;7.252;2023-11-21T05:44:58;97072.31;;;7.05
64458;BMP280;58438;51.200;7.252;2023-11-21T05:47:54;97078.34;;;7.00
64458;BMP280;58438;51.200;7.252;2023-11-21T05:50:41;97086.78;;;7.02
64458;BMP280;58438;51.200;7.252;2023-11-21T05:53:28;97085.84;;;7.05
64458;BMP280;58438;51.200;7.252;2023-11-21T05:56:16;97092.06;;;6.97
64458;BMP280;58438;51.200;7.252;2023-11-21T05:59:04;97104.69;;;7.00
64458;BMP280;58438;51.200;7.252;2023-11-21T06:01:53;97105.56;;;6.97
64458;BMP280;58438;51.200;7.252;2023-11-21T06:04:41;97113.00;;;6.96
64458;BMP280;58438;51.200;7.252;2023-11-21T06:07:28;97130.13;;;6.93
64458;BMP280;58438;51.200;7.252;2023-11-21T06:10:19;97121.72;;;6.91
64458;BMP280;58438;51.200;7.252;2023-11-21T06:13:06;97127.72;;;6.95
64458;BMP280;58438;51.200;7.252;2023-11-21T06:15:53;97131.22;;;6.87
64458;BMP280;58438;51.200;7.252;2023-11-21T06:18:42;97133.00;;;6.90
64458;BMP280;58438;51.200;7.252;2023-11-21T06:21:29;97144.41;;;6.94
64458;BMP280;58438;51.200;7.252;2023-11-21T06:24:16;97148.63;;;6.95
64458;BMP280;58438;51.200;7.252;2023-11-21T06:27:03;97150.88;;;6.96
64458;BMP280;58438;51.200;7.252;2023-11-21T06:29:51;97145.47;;;6.96
64458;BMP280;58438;51.200;7.252;2023-11-21T06:32:38;97146.94;;;6.97
64458;BMP280;58438;51.200;7.252;2023-11-21T06:35:27;97143.66;;;6.93
64458;BMP280;58438;51.200;7.252;2023-11-21T06:38:18;97131.66;;;6.85
64458;BMP280;58438;51.200;7.252;2023-11-21T06:41:05;97133.47;;;6.88
64458;BMP280;58438;51.200;7.252;2023-11-21T06:43:53;97134.19;;;6.89
64458;BMP280;58438;51.200;7.252;2023-11-21T06:46:40;97138.88;;;6.88
64458;BMP280;58438;51.200;7.252;2023-11-21T06:49:28;97138.13;;;6.88
64458;BMP280;58438;51.200;7.252;2023-11-21T06:52:18;97147.91;;;6.85
64458;BMP280;58438;51.200;7.252;2023-11-21T06:55:05;97150.94;;;6.79
64458;BMP280;58438;51.200;7.252;2023-11-21T06:57:54;97145.53;;;6.79
64458;BMP280;58438;51.200;7.252;2023-11-21T07:00:43;97147.34;;;6.82
64458;BMP280;58438;51.200;7.252;2023-11-21T07:03:33;97158.47;;;6.84
64458;BMP280;58438;51.200;7.252;2023-11-21T07:06:20;97161.78;;;6.79
64458;BMP280;58438;51.200;7.252;2023-11-21T07:09:08;97166.09;;;6.85
64458;BMP280;58438;51.200;7.252;2023-11-21T07:11:57;97176.47;;;6.87
64458;BMP280;58438;51.200;7.252;2023-11-21T07:14:45;97173.22;;;6.97
64458;BMP280;58438;51.200;7.252;2023-11-21T07:17:32;97180.34;;;6.94
64458;BMP280;58438;51.200;7.252;2023-11-21T07:20:24;97186.06;;;6.96
64458;BMP280;58438;51.200;7.252;2023-11-21T07:23:12;97198.97;;;6.92
64458;BMP280;58438;51.200;7.252;2023-11-21T07:26:03;97196.59;;;6.94
64458;BMP280;58438;51.200;7.252;2023-11-21T07:28:55;97189.91;;;7.04
64458;BMP280;58438;51.200;7.252;2023-11-21T07:31:43;97206.13;;;7.04
64458;BMP280;58438;51.200;7.252;2023-11-21T07:34:30;97211.56;;;7.04
64458;BMP280;58438;51.200;7.252;2023-11-21T07:37:18;97213.50;;;7.04
64458;BMP280;58438;51.200;7.252;2023-11-21T07:40:05;97210.91;;;7.09
64458;BMP280;58438;51.200;7.252;2023-11-21T07:42:56;97220.53;;;7.10
64458;BMP280;58438;51.200;7.252;2023-11-21T07:45:43;97218.75;;;7.07
64458;BMP280;58438;51.200;7.252;2023-11-21T07:48:32;97220.22;;;7.08
64458;BMP280;58438;51.200;7.252;2023-11-21T07:51:20;97219.22;;;7.06
64458;BMP280;58438;51.200;7.252;2023-11-21T07:54:08;97217.50;;;7.08
64458;BMP280;58438;51.200;7.252;2023-11-21T07:56:56;97215.13;;;7.10
64458;BMP280;58438;51.200;7.252;2023-11-21T07:59:44;97211.94;;;7.12
64458;BMP280;58438;51.200;7.252;2023-11-21T08:02:32;97217.50;;;7.08
64458;BMP280;58438;51.200;7.252;2023-11-21T08:05:20;97215.13;;;7.10
64458;BMP280;58438;51.200;7.252;2023-11-21T08:08:13;97215.84;;;7.11
64458;BMP280;58438;51.200;7.252;2023-11-21T08:11:01;97215.13;;;7.10
64458;BMP280;58438;51.200;7.252;2023-11-21T08:13:50;97223.53;;;7.12
64458;BMP280;58438;51.200;7.252;2023-11-21T08:16:39;97218.69;;;7.16
64458;BMP280;58438;51.200;7.252;2023-11-21T08:19:26;97229.31;;;7.29
64458;BMP280;58438;51.200;7.252;2023-11-21T08:22:14;97240.75;;;7.24
64458;BMP280;58438;51.200;7.252;2023-11-21T08:25:03;97253.34;;;7.27
64458;BMP280;58438;51.200;7.252;2023-11-21T08:27:51;97264.34;;;7.23
64458;BMP280;58438;51.200;7.252;2023-11-21T08:30:38;97262.56;;;7.20
64458;BMP280;58438;51.200;7.252;2023-11-21T08:33:26;97269.22;;;7.19
64458;BMP280;58438;51.200;7.252;2023-11-21T08:36:13;97277.44;;;7.25
64458;BMP280;58438;51.200;7.252;2023-11-21T08:39:01;97274.84;;;7.30
64458;BMP280;58438;51.200;7.252;2023-11-21T08:41:48;97278.31;;;7.31
64458;BMP280;58438;51.200;7.252;2023-11-21T08:44:36;97281.03;;;7.31
64458;BMP280;58438;51.200;7.252;2023-11-21T08:47:24;97281.03;;;7.31
64458;BMP280;58438;51.200;7.252;2023-11-21T08:50:13;97284.47;;;7.31
64458;BMP280;58438;51.200;7.252;2023-11-21T08:53:01;97288.19;;;7.34
64458;BMP280;58438;51.200;7.252;2023-11-21T08:55:48;97289.88;;;7.31
64458;BMP280;58438;51.200;7.252;2023-11-21T08:58:36;97294.28;;;7.29
64458;BMP280;58438;51.200;7.252;2023-11-21T09:01:24;97301.75;;;7.34
64458;BMP280;58438;51.200;7.252;2023-11-21T09:04:11;97295.09;;;7.35
64458;BMP280;58438;51.200;7.252;2023-11-21T09:07:01;97290.47;;;7.35
64458;BMP280;58438;51.200;7.252;2023-11-21T09:09:48;97290.16;;;7.33
64458;BMP280;58438;51.200;7.252;2023-11-21T09:12:37;97282.63;;;7.37
64458;BMP280;58438;51.200;7.252;2023-11-21T09:15:24;97289.69;;;7.35
64458;BMP280;58438;51.200;7.252;2023-11-21T09:18:12;97294.38;;;7.34
64458;BMP280;58438;51.200;7.252;2023-11-21T09:20:59;97299.34;;;7.36
64458;BMP280;58438;51.200;7.252;2023-11-21T09:23:48;97300.09;;;7.36
64458;BMP280;58438;51.200;7.252;2023-11-21T09:26:35;97293.09;;;7.44
64458;BMP280;58438;51.200;7.252;2023-11-21T09:29:22;97302.72;;;7.45
64458;BMP280;58438;51.200;7.252;2023-11-21T09:32:09;97295.38;;;7.46
64458;BMP280;58438;51.200;7.252;2023-11-21T09:34:57;97308.56;;;7.53
64458;BMP280;58438;51.200;7.252;2023-11-21T09:37:46;97308.44;;;7.47
64458;BMP280;58438;51.200;7.252;2023-11-21T09:40:36;97317.75;;;7.46
64458;BMP280;58438;51.200;7.252;2023-11-21T09:43:24;97318.81;;;7.49
64458;BMP280;58438;51.200;7.252;2023-11-21T09:46:13;97320.78;;;7.48
64458;BMP280;58438;51.200;7.252;2023-11-21T09:49:06;97326.78;;;7.52
64458;BMP280;58438;51.200;7.252;2023-11-21T09:51:58;97321.63;;;7.54
64458;BMP280;58438;51.200;7.252;2023-11-21T09:54:45;97323.78;;;7.50
64458;BMP280;58438;51.200;7.252;2023-11-21T09:57:34;97325.28;;;7.51
64458;BMP280;58438;51.200;7.252;2023-11-21T10:00:22;97319.22;;;7.56
64458;BMP280;58438;51.200;7.252;2023-11-21T10:03:10;97319.50;;;7.58
64458;BMP280;58438;51.200;7.252;2023-11-21T10:05:58;97324.81;;;7.53
64458;BMP280;58438;51.200;7.252;2023-11-21T10:08:46;97312.59;;;7.57
64458;BMP280;58438;51.200;7.252;2023-11-21T10:11:40;97312.72;;;7.63
64458;BMP280;58438;51.200;7.252;2023-11-21T10:14:29;97308.31;;;7.65
64458;BMP280;58438;51.200;7.252;2023-11-21T10:17:17;97302.28;;;7.70
64458;BMP280;58438;51.200;7.252;2023-11-21T10:20:05;97314.25;;;7.78
64458;BMP280;58438;51.200;7.252;2023-11-21T10:22:57;97302.94;;;7.80
64458;BMP280;58438;51.200;7.252;2023-11-21T10:25:45;97305.50;;;7.83
64458;BMP280;58438;51.200;7.252;2023-11-21T10:28:35;97307.28;;;7.86
64458;BMP280;58438;51.200;7.252;2023-11-21T10:31:26;97319.59;;;7.87
64458;BMP280;58438;51.200;7.252;2023-11-21T10:34:14;97313.91;;;7.85
64458;BMP280;58438;51.200;7.252;2023-11-21T10:37:10;97322.78;;;7.86
64458;BMP280;58438;51.200;7.252;2023-11-21T10:39:57;97312.03;;;7.91
64458;BMP280;58438;51.200;7.252;2023-11-21T10:42:45;97315.81;;;7.94
64458;BMP280;58438;51.200;7.252;2023-11-21T10:45:33;97321.03;;;7.97
64458;BMP280;58438;51.200;7.252;2023-11-21T10:48:22;97327.22;;;7.98
64458;BMP280;58438;51.200;7.252;2023-11-21T10:51:10;97332.91;;;8.00
64458;BMP280;58438;51.200;7.252;2023-11-21T10:53:57;97334.25;;;8.04
64458;BMP280;58438;51.200;7.252;2023-11-21T10:56:46;97333.03;;;8.05
64458;BMP280;58438;51.200;7.252;2023-11-21T10:59:34;97330.72;;;8.13
64458;BMP280;58438;51.200;7.252;2023-11-21T11:02:23;97342.75;;;8.12
64458;BMP280;58438;51.200;7.252;2023-11-21T11:05:15;97352.56;;;8.09
64458;BMP280;58438;51.200;7.252;2023-11-21T11:08:05;97357.06;;;8.12
64458;BMP280;58438;51.200;7.252;2023-11-21T11:10:52;97361.88;;;8.17
64458;BMP280;58438;51.200;7.252;2023-11-21T11:13:42;97361.94;;;8.23
64458;BMP280;58438;51.200;7.252;2023-11-21T11:16:30;97359.25;;;8.23
64458;BMP280;58438;51.200;7.252;2023-11-21T11:19:18;97361.34;;;8.19
64458;BMP280;58438;51.200;7.252;2023-11-21T11:22:08;97361.56;;;8.15
64458;BMP280;58438;51.200;7.252;2023-11-21T11:25:05;97358.19;;;8.20
64458;BMP280;58438;51.200;7.252;2023-11-21T11:28:01;97363.28;;;8.27
64458;BMP280;58438;51.200;7.252;2023-11-21T11:30:54;97361.69;;;8.35
64458;BMP280;58438;51.200;7.252;2023-11-21T11:33:51;97367.13;;;8.35
64458;BMP280;58438;51.200;7.252;2023-11-21T11:36:41;97369.91;;;8.41
64458;BMP280;58438;51.200;7.252;2023-11-21T11:39:35;97367.78;;;8.45
64458;BMP280;58438;51.200;7.252;2023-11-21T11:42:23;97363.22;;;8.50
64458;BMP280;58438;51.200;7.252;2023-11-21T11:45:17;97358.81;;;8.53
64458;BMP280;58438;51.200;7.252;2023-11-21T11:51:01;97361.81;;;8.55
64458;BMP280;58438;51.200;7.252;2023-11-21T11:59:27;97388.41;;;8.65
64458;BMP280;58438;51.200;7.252;2023-11-21T12:02:14;97391.13;;;8.65
64458;BMP280;58438;51.200;7.252;2023-11-21T12:05:02;97389.38;;;8.68
64458;BMP280;58438;51.200;7.252;2023-11-21T12:07:55;97396.22;;;8.63
64458;BMP280;58438;51.200;7.252;2023-11-21T12:16:19;97422.53;;;8.72
64458;BMP280;58438;51.200;7.252;2023-11-21T12:24:41;97427.88;;;8.81
64458;BMP280;58438;51.200;7.252;2023-11-21T12:27:28;97443.72;;;8.82
64458;BMP280;58438;51.200;7.252;2023-11-21T12:38:41;97456.34;;;8.85
64458;BMP280;58438;51.200;7.252;2023-11-21T12:49:52;97459.31;;;8.87
64458;BMP280;58438;51.200;7.252;2023-11-21T13:01:01;97463.06;;;8.90
64458;BMP280;58438;51.200;7.252;2023-11-21T13:03:50;97471.59;;;8.83
64458;BMP280;58438;51.200;7.252;2023-11-21T13:06:37;97481.03;;;8.87
64458;BMP280;58438;51.200;7.252;2023-11-21T13:09:27;97474.84;;;8.72
64458;BMP280;58438;51.200;7.252;2023-11-21T13:12:14;97474.31;;;8.83
64458;BMP280;58438;51.200;7.252;2023-11-21T13:15:04;97469.63;;;8.83
64458;BMP280;58438;51.200;7.252;2023-11-21T13:17:54;97482.16;;;8.81
64458;BMP280;58438;51.200;7.252;2023-11-21T13:20:42;97482.56;;;8.88
64458;BMP280;58438;51.200;7.252;2023-11-21T13:23:34;97487.06;;;8.91
64458;BMP280;58438;51.200;7.252;2023-11-21T13:26:22;97506.88;;;8.83
64458;BMP280;58438;51.200;7.252;2023-11-21T13:29:11;97491.88;;;8.87
64458;BMP280;58438;51.200;7.252;2023-11-21T13:31:59;97495.44;;;8.79
64458;BMP280;58438;51.200;7.252;2023-11-21T13:34:50;97504.63;;;8.81
64458;BMP280;58438;51.200;7.252;2023-11-21T13:37:40;97492.72;;;8.79
64458;BMP280;58438;51.200;7.252;2023-11-21T13:40:28;97497.88;;;8.77
64458;BMP280;58438;51.200;7.252;2023-11-21T13:43:16;97495.66;;;8.75
64458;BMP280;58438;51.200;7.252;2023-11-21T13:46:06;97500.59;;;8.77
64458;BMP280;58438;51.200;7.252;2023-11-21T13:48:55;97506.13;;;8.82
64458;BMP280;58438;51.200;7.252;2023-11-21T13:51:43;97504.69;;;8.72
64458;BMP280;58438;51.200;7.252;2023-11-21T13:54:33;97504.78;;;8.63
64458;BMP280;58438;51.200;7.252;2023-11-21T13:57:20;97502.38;;;8.65
64458;BMP280;58438;51.200;7.252;2023-11-21T14:00:08;97506.38;;;8.70
64458;BMP280;58438;51.200;7.252;2023-11-21T14:03:08;97498.53;;;8.48
64458;BMP280;58438;51.200;7.252;2023-11-21T14:06:03;97496.34;;;8.38
64458;BMP280;58438;51.200;7.252;2023-11-21T14:11:53;97501.16;;;8.43
64458;BMP280;58438;51.200;7.252;2023-11-21T14:14:41;97496.91;;;8.28
64458;BMP280;58438;51.200;7.252;2023-11-21T14:17:30;97497.53;;;8.23
64458;BMP280;58438;51.200;7.252;2023-11-21T14:20:17;97501.69;;;8.33
64458;BMP280;58438;51.200;7.252;2023-11-21T14:23:06;97500.19;;;8.32
64458;BMP280;58438;51.200;7.252;2023-11-21T14:25:54;97500.16;;;8.17
64458;BMP280;58438;51.200;7.252;2023-11-21T14:28:43;97501.22;;;8.34
64458;BMP280;58438;51.200;7.252;2023-11-21T14:31:30;97504.28;;;8.27
64458;BMP280;58438;51.200;7.252;2023-11-21T14:34:18;97506.72;;;8.25
64458;BMP280;58438;51.200;7.252;2023-11-21T14:37:07;97502.53;;;8.15
64458;BMP280;58438;51.200;7.252;2023-11-21T14:39:54;97506.25;;;8.27
64458;BMP280;58438;51.200;7.252;2023-11-21T14:42:41;97512.00;;;8.20
64458;BMP280;58438;51.200;7.252;2023-11-21T14:45:30;97510.81;;;8.21
64458;BMP280;58438;51.200;7.252;2023-11-21T14:48:17;97498.81;;;8.13
64458;BMP280;58438;51.200;7.252;2023-11-21T14:51:20;97496.94;;;8.19
64458;BMP280;58438;51.200;7.252;2023-11-21T14:54:16;97510.38;;;8.13
64458;BMP280;58438;51.200;7.252;2023-11-21T14:57:12;97515.91;;;8.19
64458;BMP280;58438;51.200;7.252;2023-11-21T15:00:04;97522.22;;;8.01
64458;BMP280;58438;51.200;7.252;2023-11-21T15:02:57;97524.16;;;8.01
64458;BMP280;58438;51.200;7.252;2023-11-21T15:05:44;97523.03;;;8.07
64458;BMP280;58438;51.200;7.252;2023-11-21T15:08:30;97521.84;;;8.08
64458;BMP280;58438;51.200;7.252;2023-11-21T15:11:18;97536.84;;;7.95
64458;BMP280;58438;51.200;7.252;2023-11-21T15:14:05;97535.75;;;8.01
64458;BMP280;58438;51.200;7.252;2023-11-21T15:16:55;97538.16;;;7.99
64458;BMP280;58438;51.200;7.252;2023-11-21T15:19:47;97544.97;;;7.95
64458;BMP280;58438;51.200;7.252;2023-11-21T15:22:35;97552.09;;;7.83
64458;BMP280;58438;51.200;7.252;2023-11-21T15:25:23;97547.59;;;7.80
64458;BMP280;58438;51.200;7.252;2023-11-21T15:28:10;97545.75;;;7.77
64458;BMP280;58438;51.200;7.252;2023-11-21T15:30:57;97547.28;;;7.78
64458;BMP280;58438;51.200;7.252;2023-11-21T15:33:44;97557.50;;;7.83
64458;BMP280;58438;51.200;7.252;2023-11-21T15:36:33;97556.63;;;7.86
64458;BMP280;58438;51.200;7.252;2023-11-21T15:39:20;97558.91;;;7.70
64458;BMP280;58438;51.200;7.252;2023-11-21T15:42:11;97565.97;;;7.67
64458;BMP280;58438;51.200;7.252;2023-11-21T15:44:58;97568.09;;;7.72
64458;BMP280;58438;51.200;7.252;2023-11-21T15:47:45;97580.13;;;7.71
64458;BMP280;58438;51.200;7.252;2023-11-21T15:50:32;97570.81;;;7.72
64458;BMP280;58438;51.200;7.252;2023-11-21T15:53:22;97574.53;;;7.66
64458;BMP280;58438;51.200;7.252;2023-11-21T15:56:09;97576.53;;;7.65
64458;BMP280;58438;51.200;7.252;2023-11-21T15:58:58;97588.59;;;7.64
64458;BMP280;58438;51.200;7.252;2023-11-21T16:01:46;97596.97;;;7.66
64458;BMP280;58438;51.200;7.252;2023-11-21T16:04:35;97598.03;;;7.69
64458;BMP280;58438;51.200;7.252;2023-11-21T16:07:23;97605.00;;;7.61
64458;BMP280;58438;51.200;7.252;2023-11-21T16:10:12;97616.88;;;7.72
64458;BMP280;58438;51.200;7.252;2023-11-21T16:13:00;97620.78;;;7.62
64458;BMP280;58438;51.200;7.252;2023-11-21T16:15:48;97626.19;;;7.71
64458;BMP280;58438;51.200;7.252;2023-11-21T16:18:37;97639.16;;;7.58
64458;BMP280;58438;51.200;7.252;2023-11-21T16:21:24;97650.00;;;7.58
64458;BMP280;58438;51.200;7.252;2023-11-21T16:24:11;97647.25;;;7.67
64458;BMP280;58438;51.200;7.252;2023-11-21T16:27:00;97655.25;;;7.62
64458;BMP280;58438;51.200;7.252;2023-11-21T16:29:48;97656.00;;;7.62
64458;BMP280;58438;51.200;7.252;2023-11-21T16:32:35;97669.88;;;7.64
64458;BMP280;58438;51.200;7.252;2023-11-21T16:35:22;97668.50;;;7.60
64458;BMP280;58438;51.200;7.252;2023-11-21T16:38:10;97677.66;;;7.62
64458;BMP280;58438;51.200;7.252;2023-11-21T16:40:58;97693.47;;;7.46
64458;BMP280;58438;51.200;7.252;2023-11-21T16:43:46;97692.16;;;7.41
64458;BMP280;58438;51.200;7.252;2023-11-21T16:46:34;97703.25;;;7.34
64458;BMP280;58438;51.200;7.252;2023-11-21T16:49:21;97703.56;;;7.36
64458;BMP280;58438;51.200;7.252;2023-11-21T16:52:08;97721.59;;;7.30
64458;BMP280;58438;51.200;7.252;2023-11-21T16:54:55;97711.50;;;7.22
64458;BMP280;58438;51.200;7.252;2023-11-21T16:57:42;97723.72;;;7.17
64458;BMP280;58438;51.200;7.252;2023-11-21T17:00:31;97724.00;;;7.28
64458;BMP280;58438;51.200;7.252;2023-11-21T17:03:18;97740.53;;;7.21
64458;BMP280;58438;51.200;7.252;2023-11-21T17:06:06;97748.63;;;7.03
64458;BMP280;58438;51.200;7.252;2023-11-21T17:08:55;97751.03;;;7.10
64458;BMP280;58438;51.200;7.252;2023-11-21T17:11:42;97756.47;;;7.10
64458;BMP280;58438;51.200;7.252;2023-11-21T17:14:31;97758.56;;;7.06
64458;BMP280;58438;51.200;7.252;2023-11-21T17:17:19;97764.25;;;7.08